Data for 03/24/2010

Time Sea-Level Adjusted Pressure Absolute Pressure Temperature Relative Humidity Dew Point   
(mb) (inHg) (mb) (inHg) (C) (F) (%) (C) (F)
00:05 1023 30.21 852 25.16 -1 30.2 65 -6.7 19.9
00:10 1023 30.21 852 25.16 -1 30.3 66 -6.6 20.1
00:15 1023 30.21 852 25.16 -1.2 29.9 66 -6.7 19.9
00:20 1023 30.21 852 25.16 -1.2 29.8 66 -6.8 19.7
00:25 1023 30.21 852 25.16 -1.3 29.6 66 -6.9 19.6
00:30 1023 30.21 852 25.16 -1.4 29.6 66 -6.9 19.6
00:35 1023 30.21 852 25.16 -1.4 29.5 66 -6.9 19.6
00:40 1023 30.21 852 25.16 -1.3 29.6 66 -7 19.5
00:45 1023 30.21 852 25.16 -1.3 29.7 65 -7.1 19.3
00:50 1023 30.21 852 25.16 -1.3 29.6 65 -7.1 19.3
00:55 1023 30.21 852 25.16 -1.2 29.8 64 -7.1 19.2
01:00 1023 30.21 852 25.16 -1.2 29.8 65 -7.1 19.2
01:05 1023 30.21 852 25.16 -1.2 29.8 64 -7.2 19.1
01:10 1023 30.21 852 25.16 -1.1 30 64 -7.1 19.2
01:15 1023 30.21 852 25.16 -1.1 30 64 -7.2 19.1
01:20 1023 30.21 852 25.16 -1.2 29.9 64 -7.1 19.2
01:25 1023 30.21 852 25.16 -1.2 29.8 64 -7.2 19
01:30 1023 30.21 852 25.16 -1.3 29.7 64 -7.2 19.1
01:35 1023 30.21 852 25.16 -1.1 30 64 -7.2 19.1
01:40 1023 30.21 852 25.16 -1.1 30 64 -7.1 19.3
01:45 1023 30.21 852 25.16 -1.2 29.9 63 -7.3 18.9
01:50 1023 30.21 852 25.16 -0.9 30.3 61 -7.6 18.3
01:55 1023 30.21 852 25.16 -0.5 31 61 -7.2 19
02:00 1023 30.21 852 25.16 -0.6 30.9 61 -7.1 19.2
02:05 1023 30.21 852 25.16 -0.8 30.6 62 -7.1 19.2
02:10 1023 30.21 852 25.16 -0.9 30.5 62 -7.2 19
02:15 1023 30.21 852 25.16 -0.9 30.4 62 -7.3 18.9
02:20 1023 30.21 852 25.16 -1 30.2 64 -7.1 19.3
02:25 1023 30.21 852 25.16 -1.1 30.1 62 -7.4 18.8
02:30 1023 30.21 852 25.16 -1 30.2 63 -7.2 19
02:35 1023 30.21 852 25.16 -1.2 29.8 64 -7.3 18.9
02:40 1023 30.21 852 25.16 -1.2 29.8 63 -7.3 18.8
02:45 1023 30.21 852 25.16 -1.4 29.6 64 -7.2 19
02:50 1023 30.21 852 25.16 -1.5 29.3 63 -7.6 18.3
02:55 1023 30.21 852 25.16 -1.4 29.4 64 -7.4 18.6
03:00 1023 30.21 852 25.16 -1.7 29 65 -7.4 18.7
03:05 1023 30.21 852 25.16 -2 28.4 67 -7.3 18.8
03:10 1023 30.21 852 25.16 -2.3 27.8 69 -7.2 19
03:15 1023 30.21 852 25.16 -2.3 27.9 69 -7.2 19
03:20 1023 30.21 852 25.16 -2 28.3 67 -7.4 18.7
03:25 1023 30.21 852 25.16 -2.2 28.1 67 -7.4 18.6
03:30 1023 30.21 852 25.16 -2.2 28 68 -7.4 18.7
03:35 1023 30.21 852 25.16 -2.4 27.6 68 -7.5 18.5
03:40 1023 30.21 852 25.16 -2.4 27.7 67 -7.6 18.3
03:45 1023 30.21 852 25.16 -2.2 28 67 -7.6 18.3
03:50 1023 30.21 852 25.16 -2.2 28.1 67 -7.5 18.4
03:55 1022 30.18 852 25.16 -2.3 27.9 67 -7.6 18.4
04:00 1022 30.18 852 25.16 -2.4 27.6 68 -7.6 18.4
04:05 1022 30.18 852 25.16 -2.7 27.2 68 -7.8 18
04:10 1022 30.18 852 25.16 -2.5 27.4 67 -7.9 17.8
04:15 1022 30.18 852 25.16 -2.4 27.7 66 -7.8 17.9
04:20 1022 30.18 851 25.13 -2.5 27.6 67 -7.8 17.9
04:25 1022 30.18 851 25.13 -2.5 27.6 67 -7.9 17.9
04:30 1022 30.18 851 25.13 -2.6 27.4 67 -7.8 17.9
04:35 1022 30.18 851 25.13 -2.8 27 68 -7.9 17.8
04:40 1022 30.18 851 25.13 -2.9 26.7 68 -8 17.6
04:45 1022 30.18 851 25.13 -3 26.6 68 -8.1 17.5
04:50 1022 30.18 851 25.13 -3 26.6 68 -8.1 17.4
04:55 1022 30.18 851 25.13 -3 26.6 68 -8.1 17.3
05:00 1022 30.18 851 25.13 -2.9 26.8 68 -8 17.6
05:05 1022 30.18 851 25.13 -3 26.6 69 -8 17.6
05:10 1022 30.18 851 25.13 -3.2 26.3 69 -8.1 17.4
05:15 1022 30.18 851 25.13 -3.1 26.4 68 -8.2 17.3
05:20 1022 30.18 851 25.13 -3 26.6 67 -8.3 17.1
05:25 1022 30.18 851 25.13 -3 26.7 66 -8.4 16.9
05:30 1022 30.18 851 25.13 -2.9 26.8 66 -8.3 17
05:35 1022 30.18 851 25.13 -2.8 27 66 -8.3 17
05:40 1022 30.18 851 25.13 -2.7 27.2 66 -8.3 17.1
05:45 1022 30.18 851 25.13 -2.8 27 66 -8.2 17.2
05:50 1022 30.18 851 25.13 -2.9 26.7 67 -8.2 17.2
05:55 1022 30.18 851 25.13 -3.1 26.4 68 -8.3 17.1
06:00 1022 30.18 851 25.13 -3.3 26.1 68 -8.4 16.8
06:05 1022 30.18 851 25.13 -3.1 26.3 68 -8.3 17
06:10 1022 30.18 851 25.13 -3.1 26.5 67 -8.4 16.9
06:15 1022 30.18 851 25.13 -2.7 27.2 65 -8.4 16.8
06:20 1022 30.18 851 25.13 -2.4 27.6 64 -8.4 16.9
06:25 1022 30.18 851 25.13 -2.5 27.5 65 -8.3 17.1
06:30 1022 30.18 851 25.13 -2.7 27.2 65 -8.4 16.9
06:35 1022 30.18 851 25.13 -2.9 26.8 65 -8.5 16.8
06:40 1022 30.18 851 25.13 -3.1 26.4 67 -8.4 16.9
06:45 1022 30.18 851 25.13 -3.2 26.2 67 -8.4 16.8
06:50 1022 30.18 851 25.13 -3.3 26.1 67 -8.6 16.6
06:55 1022 30.18 851 25.13 -3.2 26.3 67 -8.5 16.7
07:00 1022 30.18 851 25.13 -3.1 26.5 66 -8.6 16.5
07:05 1022 30.18 851 25.13 -2.9 26.8 65 -8.6 16.4
07:10 1022 30.18 851 25.13 -2.8 26.9 65 -8.6 16.6
07:15 1022 30.18 851 25.13 -3 26.6 66 -8.6 16.6
07:20 1022 30.18 851 25.13 -3.1 26.4 66 -8.6 16.5
07:25 1022 30.18 851 25.13 -3.2 26.3 67 -8.5 16.7
07:30 1022 30.18 851 25.13 -3.5 25.8 68 -8.5 16.7
07:35 1022 30.18 851 25.13 -3.3 26.1 67 -8.7 16.4
07:40 1022 30.18 851 25.13 -2.8 27 64 -8.7 16.4
07:45 1022 30.18 851 25.13 -2.5 27.6 63 -8.6 16.6
07:50 1022 30.18 851 25.13 -2.6 27.4 64 -8.5 16.7
07:55 1022 30.18 851 25.13 -2.6 27.3 65 -8.4 16.9
08:00 1022 30.18 851 25.13 -2.6 27.3 64 -8.5 16.7
08:05 1022 30.18 851 25.13 -2.6 27.3 64 -8.5 16.7
08:10 1022 30.18 851 25.13 -2.4 27.7 63 -8.5 16.7
08:15 1022 30.18 851 25.13 -2.2 28.1 61 -8.7 16.3
08:20 1022 30.18 851 25.13 -1.8 28.8 60 -8.5 16.7
08:25 1022 30.18 851 25.13 -1.5 29.3 59 -8.5 16.7
08:30 1022 30.18 851 25.13 -1.3 29.6 58 -8.6 16.5
08:35 1022 30.18 851 25.13 -1.1 30 58 -8.2 17.2
08:40 1022 30.18 851 25.13 -1.1 30.1 59 -8 17.5
08:45 1022 30.18 851 25.13 -1 30.3 57 -8.4 16.9
08:50 1022 30.18 851 25.13 -0.8 30.6 56 -8.5 16.6
08:55 1022 30.18 851 25.13 -0.2 31.7 53 -8.5 16.6
09:00 1022 30.18 851 25.13 0.3 32.5 52 -8.4 16.8
09:05 1022 30.18 851 25.13 0.5 32.9 52 -8.2 17.2
09:10 1022 30.18 851 25.13 0.7 33.3 52 -8.1 17.5
09:15 1022 30.18 851 25.13 0.7 33.2 53 -7.9 17.7
09:20 1022 30.18 851 25.13 0.6 33.1 51 -8.4 16.8
09:25 1022 30.18 851 25.13 0.5 32.9 53 -8 17.7
09:30 1022 30.18 851 25.13 0.6 33 52 -8.3 17.1
09:35 1022 30.18 851 25.13 0.7 33.2 51 -8.3 17
09:40 1021 30.15 851 25.13 0.6 33.1 49 -8.8 16.1
09:45 1021 30.15 851 25.13 0.9 33.6 49 -8.6 16.5
09:50 1021 30.15 850 25.1 1.1 34.1 49 -8.5 16.8
09:55 1021 30.15 850 25.1 1.3 34.3 49 -8.3 17
10:00 1021 30.15 850 25.1 2.2 35.9 45 -8.6 16.5
10:05 1021 30.15 850 25.1 2.7 36.8 44 -8.5 16.8
10:10 1021 30.15 850 25.1 2.5 36.6 44 -8.4 16.9
10:15 1021 30.15 850 25.1 2.6 36.6 43 -8.8 16.2
10:20 1021 30.15 850 25.1 3.3 38 41 -8.6 16.5
10:25 1021 30.15 850 25.1 3.6 38.5 41 -8.3 17
10:30 1021 30.15 850 25.1 4.1 39.3 38 -9 15.8
10:35 1021 30.15 850 25.1 4.1 39.5 37 -9.1 15.6
10:40 1021 30.15 850 25.1 4.1 39.4 38 -9 15.9
10:45 1021 30.15 850 25.1 4.4 39.9 36 -9.3 15.2
10:50 1021 30.15 850 25.1 4.6 40.2 37 -9 15.9
10:55 1021 30.15 850 25.1 5 40.9 35 -9.2 15.5
11:00 1021 30.15 850 25.1 5.8 42.4 32 -9.8 14.3
11:05 1021 30.15 850 25.1 5.9 42.6 33 -9.1 15.7
11:10 1021 30.15 850 25.1 6 42.9 35 -8.2 17.2
11:15 1020 30.12 850 25.1 6.2 43.1 37 -7.6 18.2
11:20 1020 30.12 850 25.1 5.6 42.1 40 -6.8 19.7
11:25 1020 30.12 850 25.1 5.1 41.2 43 -6.4 20.5
11:30 1020 30.12 849 25.07 4.3 39.8 44 -6.9 19.6
11:35 1020 30.12 849 25.07 4.6 40.3 42 -7.3 18.9
11:40 1020 30.12 849 25.07 5.4 41.6 38 -7.9 17.7
11:45 1020 30.12 849 25.07 6 42.9 38 -7.2 19
11:50 1020 30.12 849 25.07 6.3 43.4 38 -7 19.5
11:55 1020 30.12 849 25.07 7 44.5 33 -8.2 17.2
12:00 1020 30.12 849 25.07 6.8 44.3 35 -7.7 18.1
12:05 1020 30.12 849 25.07 7.3 45.1 32 -8.3 17
12:10 1020 30.12 849 25.07 8.1 46.5 32 -7.8 17.9
12:15 1020 30.12 849 25.07 7.9 46.2 32 -7.8 17.9
12:20 1020 30.12 849 25.07 7.8 46 32 -7.9 17.8
12:25 1020 30.12 849 25.07 8 46.3 32 -7.6 18.4
12:30 1020 30.12 849 25.07 7.2 44.9 36 -6.8 19.7
12:35 1020 30.12 849 25.07 7.1 44.8 39 -6 21.2
12:40 1020 30.12 849 25.07 6.9 44.4 36 -7.1 19.2
12:45 1020 30.12 849 25.07 8 46.3 34 -7.1 19.2
12:50 1020 30.12 849 25.07 7.8 46 34 -7.2 19
12:55 1020 30.12 849 25.07 8.5 47.2 32 -7.5 18.5
13:00 1020 30.12 849 25.07 8.1 46.6 32 -7.7 18.1
13:05 1020 30.12 849 25.07 7.7 45.8 31 -8.5 16.7
13:10 1020 30.12 849 25.07 8.7 47.6 31 -7.4 18.6
13:15 1020 30.12 849 25.07 9 48.1 27 -9.1 15.7
13:20 1019 30.09 849 25.07 8.2 46.8 30 -8.5 16.7
13:25 1019 30.09 849 25.07 8.2 46.8 26 -10 14
13:30 1019 30.09 849 25.07 8.8 47.8 31 -7.6 18.3
13:35 1019 30.09 849 25.07 8.2 46.7 28 -9.1 15.6
13:40 1019 30.09 849 25.07 8.4 47.2 27 -9.4 15.1
13:45 1019 30.09 848 25.04 9.4 48.9 25 -9.6 14.8
13:50 1019 30.09 848 25.04 8.7 47.7 26 -9.6 14.7
13:55 1019 30.09 848 25.04 8.4 47.1 26 -9.9 14.1
14:00 1019 30.09 848 25.04 8.5 47.3 25 -10.4 13.4
14:05 1019 30.09 848 25.04 9.5 49.1 24 -9.9 14.2
14:10 1019 30.09 848 25.04 10.3 50.5 23 -10.2 13.7
14:15 1019 30.09 848 25.04 10.7 51.2 22 -10 14.1
14:20 1019 30.09 848 25.04 10.8 51.4 23 -9.4 15
14:25 1019 30.09 848 25.04 9.7 49.4 25 -9.5 14.9
14:30 1019 30.09 848 25.04 9.9 49.8 24 -9.5 14.9
14:35 1019 30.09 848 25.04 10.7 51.3 24 -9.2 15.4
14:40 1019 30.09 848 25.04 9.7 49.5 27 -8.5 16.6
14:45 1019 30.09 848 25.04 8.9 48 27 -9.3 15.3
14:50 1019 30.09 848 25.04 9 48.2 27 -9.2 15.4
14:55 1018 30.06 848 25.04 9.9 49.8 26 -8.8 16.1
15:00 1018 30.06 848 25.04 10.4 50.7 24 -9 15.7
15:05 1018 30.06 848 25.04 10.7 51.3 24 -8.9 16
15:10 1018 30.06 847 25.01 10.7 51.3 25 -8.5 16.7
15:15 1018 30.06 847 25.01 9.6 49.3 27 -8.5 16.6
15:20 1018 30.06 847 25.01 9.3 48.7 26 -9.1 15.6
15:25 1018 30.06 847 25.01 9.3 48.7 27 -8.8 16.2
15:30 1018 30.06 847 25.01 9.6 49.3 26 -8.8 16.2
15:35 1018 30.06 847 25.01 9.7 49.5 25 -9.3 15.3
15:40 1018 30.06 847 25.01 10.3 50.5 25 -9 15.9
15:45 1018 30.06 847 25.01 10.6 51.1 24 -9.3 15.3
15:50 1018 30.06 847 25.01 10.5 50.9 25 -8.9 16
15:55 1018 30.06 847 25.01 10.7 51.2 23 -9.4 15.1
16:00 1018 30.06 847 25.01 11 51.7 21 -10.3 13.5
16:05 1018 30.06 847 25.01 10.9 51.7 22 -10 14
16:10 1018 30.06 847 25.01 10.6 51.1 22 -10.4 13.3
16:15 1018 30.06 847 25.01 10.6 51 22 -10.5 13
16:20 1018 30.06 847 25.01 11 51.8 22 -9.7 14.6
16:25 1018 30.06 847 25.01 10 50 23 -10.4 13.3
16:30 1018 30.06 847 25.01 10.7 51.3 21 -10.8 12.6
16:35 1018 30.06 847 25.01 11.6 52.9 23 -8.6 16.6
16:40 1017 30.03 847 25.01 12 53.5 21 -10 14
16:45 1017 30.03 847 25.01 11.2 52.1 24 -8.5 16.6
16:50 1017 30.03 847 25.01 10.7 51.2 24 -9.2 15.4
16:55 1017 30.03 847 25.01 10.9 51.7 24 -8.6 16.5
17:00 1017 30.03 847 25.01 10 50.1 25 -9.2 15.4
17:05 1017 30.03 847 25.01 10 50 25 -9.4 15.1
17:10 1017 30.03 846 24.98 10.5 51 24 -8.9 15.9
17:15 1017 30.03 846 24.98 10.5 50.8 23 -9.9 14.2
17:20 1017 30.03 846 24.98 10.2 50.4 24 -9.5 14.9
17:25 1017 30.03 846 24.98 10.1 50.1 24 -9.5 14.8
17:30 1017 30.03 846 24.98 9.9 49.7 26 -8.7 16.3
17:35 1017 30.03 846 24.98 9.2 48.6 26 -9.1 15.6
17:40 1017 30.03 846 24.98 8.9 48.1 27 -9.2 15.5
17:45 1017 30.03 846 24.98 8.8 47.9 27 -9.1 15.6
17:50 1017 30.03 846 24.98 8.8 47.9 27 -9.3 15.3
17:55 1017 30.03 846 24.98 8.7 47.7 28 -9 15.8
18:00 1017 30.03 846 24.98 8.7 47.6 28 -8.8 16.1
18:05 1017 30.03 846 24.98 8.8 47.8 27 -9.3 15.3
18:10 1017 30.03 846 24.98 8.8 47.9 27 -9.1 15.7
18:15 1017 30.03 846 24.98 8.6 47.5 27 -9.3 15.3
18:20 1017 30.03 846 24.98 8.4 47 28 -9 15.9
18:25 1017 30.03 846 24.98 8.3 47 28 -9.1 15.6
18:30 1017 30.03 846 24.98 8.2 46.7 28 -9.1 15.6
18:35 1017 30.03 846 24.98 8.2 46.8 29 -8.9 15.9
18:40 1017 30.03 846 24.98 8 46.5 28 -9.2 15.4
18:45 1017 30.03 846 24.98 8 46.4 29 -9.1 15.6
18:50 1017 30.03 846 24.98 8 46.3 30 -8.6 16.5
18:55 1017 30.03 846 24.98 7.9 46.3 30 -8.8 16.2
19:00 1017 30.03 846 24.98 7.8 46 30 -8.9 15.9
19:05 1017 30.03 846 24.98 7.7 45.9 29 -9 15.7
19:10 1017 30.03 846 24.98 7.6 45.8 29 -9.4 15.1
19:15 1017 30.03 846 24.98 7.5 45.6 29 -9.4 15.1
19:20 1016 30 846 24.98 7.5 45.4 30 -8.9 15.9
19:25 1016 30 846 24.98 7.4 45.4 31 -8.6 16.5
19:30 1016 30 846 24.98 7.2 44.9 34 -7.6 18.3
19:35 1016 30 846 24.98 6.8 44.3 36 -7.3 18.9
19:40 1016 30 846 24.98 6.5 43.7 37 -7.2 19
19:45 1016 30 846 24.98 6.2 43.2 40 -6.5 20.4
19:50 1016 30 846 24.98 5.9 42.7 40 -6.6 20.1
19:55 1016 30 846 24.98 5.8 42.5 42 -6.2 20.9
20:00 1016 30 846 24.98 5.5 42 43 -6.2 20.8
20:05 1016 30 846 24.98 5.2 41.3 47 -5.1 22.8
20:10 1016 30 846 24.98 4.7 40.4 48 -5.4 22.4
20:15 1016 30 846 24.98 4.6 40.3 46 -6 21.2
20:20 1016 30 846 24.98 4.6 40.2 46 -6.2 20.9
20:25 1016 30 846 24.98 4.4 40 45 -6.4 20.4
20:30 1016 30 846 24.98 4.3 39.8 45 -6.5 20.4
20:35 1016 30 846 24.98 4.2 39.6 44 -7 19.3
20:40 1016 30 846 24.98 4.6 40.2 45 -6.5 20.4
20:45 1016 30 846 24.98 4.2 39.6 46 -6.3 20.7
20:50 1016 30 846 24.98 3.8 38.8 48 -6.4 20.6
20:55 1016 30 846 24.98 3.9 39 45 -6.9 19.6
21:00 1016 30 846 24.98 3.7 38.6 47 -6.6 20.2
21:05 1016 30 846 24.98 3.5 38.4 47 -6.8 19.8
21:10 1017 30.03 846 24.98 3.5 38.3 48 -6.5 20.3
21:15 1017 30.03 846 24.98 3.5 38.3 44 -7.7 18.1
21:20 1017 30.03 846 24.98 4.1 39.4 43 -7.5 18.5
21:25 1017 30.03 846 24.98 4.3 39.7 43 -7.2 19.1
21:30 1017 30.03 846 24.98 4.1 39.4 43 -7.4 18.7
21:35 1017 30.03 846 24.98 3.9 39 45 -7.1 19.1
21:40 1017 30.03 846 24.98 3.6 38.4 46 -7.1 19.2
21:45 1017 30.03 846 24.98 3.5 38.4 45 -7.2 19.1
21:50 1017 30.03 846 24.98 3.4 38.2 46 -7.3 18.9
21:55 1017 30.03 846 24.98 3.2 37.7 48 -6.8 19.8
22:00 1017 30.03 846 24.98 2.8 37 50 -6.7 19.9
22:05 1017 30.03 846 24.98 2.4 36.4 52 -6.5 20.3
22:10 1017 30.03 846 24.98 2.2 35.9 52 -6.7 19.9
22:15 1017 30.03 846 24.98 2.2 35.9 52 -6.7 19.9
22:20 1017 30.03 846 24.98 2.3 36.1 50 -7.2 19.1
22:25 1017 30.03 846 24.98 2.5 36.5 50 -7 19.4
22:30 1017 30.03 846 24.98 2.4 36.3 50 -6.9 19.6
22:35 1016 30 846 24.98 2.3 36.1 51 -6.9 19.6
22:40 1016 30 846 24.98 2.2 35.9 50 -7.3 18.9
22:45 1016 30 846 24.98 2.3 36.1 49 -7.3 18.8
22:50 1016 30 846 24.98 2.3 36.2 50 -7.2 19.1
22:55 1016 30 846 24.98 2.5 36.5 48 -7.3 18.8
23:00 1016 30 846 24.98 2.6 36.7 47 -7.5 18.4
23:05 1016 30 846 24.98 2.7 36.8 47 -7.4 18.7
23:10 1016 30 845 24.95 2.5 36.4 47 -7.6 18.3
23:15 1016 30 845 24.95 2.4 36.4 49 -7.3 18.8
23:20 1016 30 845 24.95 2.2 35.9 50 -7.3 18.9
23:25 1016 30 845 24.95 2 35.6 51 -7.2 19
23:30 1016 30 845 24.95 1.7 35.1 52 -7.2 19.1
23:35 1016 30 845 24.95 1.6 34.9 50 -7.7 18.1
23:40 1016 30 845 24.95 2.1 35.8 47 -8.2 17.3
23:45 1016 30 845 24.95 2.4 36.3 46 -8 17.6
23:50 1016 30 845 24.95 2.2 35.9 50 -7.2 19
23:55 1016 30 845 24.95 1.9 35.4 49 -7.7 18.1
24:00 1016 30 845 24.95 2.3 36.1 46 -8.2 17.2